sensor_id;sensor_type;location;lat;lon;timestamp;P1;durP1;ratioP1;P2;durP2;ratioP2
84392;SDS011;74592;48.846;2.358;2024-03-22T00:01:47;17.23;;;11.32;;
84392;SDS011;74592;48.846;2.358;2024-03-22T00:04:13;20.95;;;12.13;;
84392;SDS011;74592;48.846;2.358;2024-03-22T00:06:40;14.02;;;11.15;;
84392;SDS011;74592;48.846;2.358;2024-03-22T00:09:07;19.33;;;11.85;;
84392;SDS011;74592;48.846;2.358;2024-03-22T00:11:33;17.63;;;11.50;;
84392;SDS011;74592;48.846;2.358;2024-03-22T00:13:59;19.42;;;11.43;;
84392;SDS011;74592;48.846;2.358;2024-03-22T00:16:24;18.25;;;11.75;;
84392;SDS011;74592;48.846;2.358;2024-03-22T00:18:50;15.80;;;11.23;;
84392;SDS011;74592;48.846;2.358;2024-03-22T00:21:16;18.15;;;11.20;;
84392;SDS011;74592;48.846;2.358;2024-03-22T00:23:42;20.23;;;11.75;;
84392;SDS011;74592;48.846;2.358;2024-03-22T00:26:08;18.23;;;12.00;;
84392;SDS011;74592;48.846;2.358;2024-03-22T00:28:34;16.77;;;11.20;;
84392;SDS011;74592;48.846;2.358;2024-03-22T00:31:00;17.15;;;11.48;;
84392;SDS011;74592;48.846;2.358;2024-03-22T00:33:25;19.45;;;11.82;;
84392;SDS011;74592;48.846;2.358;2024-03-22T00:35:51;20.05;;;12.10;;
84392;SDS011;74592;48.846;2.358;2024-03-22T00:38:16;17.40;;;11.45;;
84392;SDS011;74592;48.846;2.358;2024-03-22T00:40:42;19.90;;;12.68;;
84392;SDS011;74592;48.846;2.358;2024-03-22T00:43:08;16.40;;;11.48;;
84392;SDS011;74592;48.846;2.358;2024-03-22T00:45:34;19.55;;;11.25;;
84392;SDS011;74592;48.846;2.358;2024-03-22T00:47:59;19.58;;;11.60;;
84392;SDS011;74592;48.846;2.358;2024-03-22T00:50:25;17.23;;;12.18;;
84392;SDS011;74592;48.846;2.358;2024-03-22T00:52:51;18.02;;;12.02;;
84392;SDS011;74592;48.846;2.358;2024-03-22T00:55:17;20.13;;;12.00;;
84392;SDS011;74592;48.846;2.358;2024-03-22T00:57:43;20.70;;;12.82;;
84392;SDS011;74592;48.846;2.358;2024-03-22T01:00:09;18.80;;;11.73;;
84392;SDS011;74592;48.846;2.358;2024-03-22T01:02:35;19.30;;;13.18;;
84392;SDS011;74592;48.846;2.358;2024-03-22T01:05:01;20.55;;;13.18;;
84392;SDS011;74592;48.846;2.358;2024-03-22T01:07:26;21.35;;;13.02;;
84392;SDS011;74592;48.846;2.358;2024-03-22T01:09:52;24.92;;;12.98;;
84392;SDS011;74592;48.846;2.358;2024-03-22T01:12:17;14.82;;;11.30;;
84392;SDS011;74592;48.846;2.358;2024-03-22T01:14:43;18.98;;;13.07;;
84392;SDS011;74592;48.846;2.358;2024-03-22T01:17:09;20.63;;;12.88;;
84392;SDS011;74592;48.846;2.358;2024-03-22T01:19:34;17.58;;;11.55;;
84392;SDS011;74592;48.846;2.358;2024-03-22T01:22:00;21.42;;;13.25;;
84392;SDS011;74592;48.846;2.358;2024-03-22T01:24:25;18.52;;;12.60;;
84392;SDS011;74592;48.846;2.358;2024-03-22T01:26:51;19.77;;;12.98;;
84392;SDS011;74592;48.846;2.358;2024-03-22T01:29:17;19.10;;;13.27;;
84392;SDS011;74592;48.846;2.358;2024-03-22T01:31:42;16.20;;;12.48;;
84392;SDS011;74592;48.846;2.358;2024-03-22T01:34:08;20.30;;;12.80;;
84392;SDS011;74592;48.846;2.358;2024-03-22T01:36:34;19.85;;;13.10;;
84392;SDS011;74592;48.846;2.358;2024-03-22T01:38:59;19.00;;;13.10;;
84392;SDS011;74592;48.846;2.358;2024-03-22T01:41:25;19.65;;;13.70;;
84392;SDS011;74592;48.846;2.358;2024-03-22T01:43:50;21.77;;;12.95;;
84392;SDS011;74592;48.846;2.358;2024-03-22T01:46:16;20.08;;;13.77;;
84392;SDS011;74592;48.846;2.358;2024-03-22T01:48:42;18.52;;;13.45;;
84392;SDS011;74592;48.846;2.358;2024-03-22T01:51:07;18.55;;;12.98;;
84392;SDS011;74592;48.846;2.358;2024-03-22T01:53:34;20.00;;;13.93;;
84392;SDS011;74592;48.846;2.358;2024-03-22T01:56:02;19.02;;;12.93;;
84392;SDS011;74592;48.846;2.358;2024-03-22T01:58:28;19.58;;;13.55;;
84392;SDS011;74592;48.846;2.358;2024-03-22T02:00:54;21.10;;;13.60;;
84392;SDS011;74592;48.846;2.358;2024-03-22T02:03:19;20.45;;;13.60;;
84392;SDS011;74592;48.846;2.358;2024-03-22T02:05:45;23.65;;;14.43;;
84392;SDS011;74592;48.846;2.358;2024-03-22T02:08:11;21.08;;;14.10;;
84392;SDS011;74592;48.846;2.358;2024-03-22T02:10:36;20.50;;;14.45;;
84392;SDS011;74592;48.846;2.358;2024-03-22T02:13:02;19.67;;;14.73;;
84392;SDS011;74592;48.846;2.358;2024-03-22T02:15:28;21.20;;;15.20;;
84392;SDS011;74592;48.846;2.358;2024-03-22T02:17:55;22.13;;;14.05;;
84392;SDS011;74592;48.846;2.358;2024-03-22T02:20:20;21.15;;;14.25;;
84392;SDS011;74592;48.846;2.358;2024-03-22T02:22:46;24.17;;;14.38;;
84392;SDS011;74592;48.846;2.358;2024-03-22T02:25:11;22.10;;;15.02;;
84392;SDS011;74592;48.846;2.358;2024-03-22T02:27:38;21.60;;;13.90;;
84392;SDS011;74592;48.846;2.358;2024-03-22T02:30:04;18.45;;;14.23;;
84392;SDS011;74592;48.846;2.358;2024-03-22T02:32:30;19.63;;;15.07;;
84392;SDS011;74592;48.846;2.358;2024-03-22T02:34:56;19.88;;;14.45;;
84392;SDS011;74592;48.846;2.358;2024-03-22T02:37:21;21.13;;;13.05;;
84392;SDS011;74592;48.846;2.358;2024-03-22T02:39:47;19.45;;;13.88;;
84392;SDS011;74592;48.846;2.358;2024-03-22T02:42:12;22.58;;;14.80;;
84392;SDS011;74592;48.846;2.358;2024-03-22T02:44:38;17.38;;;12.20;;
84392;SDS011;74592;48.846;2.358;2024-03-22T02:47:08;20.40;;;14.63;;
84392;SDS011;74592;48.846;2.358;2024-03-22T02:49:39;20.90;;;13.40;;
84392;SDS011;74592;48.846;2.358;2024-03-22T02:52:05;20.80;;;13.15;;
84392;SDS011;74592;48.846;2.358;2024-03-22T02:54:30;20.00;;;13.77;;
84392;SDS011;74592;48.846;2.358;2024-03-22T02:56:56;16.65;;;13.23;;
84392;SDS011;74592;48.846;2.358;2024-03-22T02:59:22;19.73;;;13.80;;
84392;SDS011;74592;48.846;2.358;2024-03-22T03:01:51;22.63;;;14.15;;
84392;SDS011;74592;48.846;2.358;2024-03-22T03:04:16;20.95;;;13.30;;
84392;SDS011;74592;48.846;2.358;2024-03-22T03:06:42;18.38;;;12.63;;
84392;SDS011;74592;48.846;2.358;2024-03-22T03:09:08;24.35;;;13.63;;
84392;SDS011;74592;48.846;2.358;2024-03-22T03:11:35;17.95;;;13.50;;
84392;SDS011;74592;48.846;2.358;2024-03-22T03:14:03;20.13;;;13.13;;
84392;SDS011;74592;48.846;2.358;2024-03-22T03:16:28;16.20;;;11.63;;
84392;SDS011;74592;48.846;2.358;2024-03-22T03:18:54;17.58;;;12.18;;
84392;SDS011;74592;48.846;2.358;2024-03-22T03:21:20;17.50;;;12.20;;
84392;SDS011;74592;48.846;2.358;2024-03-22T03:23:45;17.73;;;12.93;;
84392;SDS011;74592;48.846;2.358;2024-03-22T03:26:11;18.92;;;12.63;;
84392;SDS011;74592;48.846;2.358;2024-03-22T03:28:37;17.42;;;12.00;;
84392;SDS011;74592;48.846;2.358;2024-03-22T03:31:02;21.73;;;13.00;;
84392;SDS011;74592;48.846;2.358;2024-03-22T03:33:28;18.17;;;13.52;;
84392;SDS011;74592;48.846;2.358;2024-03-22T03:35:54;22.13;;;13.23;;
84392;SDS011;74592;48.846;2.358;2024-03-22T03:38:19;16.60;;;12.48;;
84392;SDS011;74592;48.846;2.358;2024-03-22T03:40:46;18.35;;;13.25;;
84392;SDS011;74592;48.846;2.358;2024-03-22T03:43:12;18.30;;;12.35;;
84392;SDS011;74592;48.846;2.358;2024-03-22T03:45:37;17.13;;;12.13;;
84392;SDS011;74592;48.846;2.358;2024-03-22T03:48:03;19.95;;;12.07;;
84392;SDS011;74592;48.846;2.358;2024-03-22T03:50:29;19.95;;;12.18;;
84392;SDS011;74592;48.846;2.358;2024-03-22T03:52:55;17.48;;;12.68;;
84392;SDS011;74592;48.846;2.358;2024-03-22T03:55:21;16.25;;;12.55;;
84392;SDS011;74592;48.846;2.358;2024-03-22T03:57:47;17.05;;;11.52;;
84392;SDS011;74592;48.846;2.358;2024-03-22T04:00:15;19.33;;;12.60;;
84392;SDS011;74592;48.846;2.358;2024-03-22T04:02:41;16.90;;;11.77;;
84392;SDS011;74592;48.846;2.358;2024-03-22T04:05:06;19.08;;;13.63;;
84392;SDS011;74592;48.846;2.358;2024-03-22T04:07:32;21.92;;;13.95;;
84392;SDS011;74592;48.846;2.358;2024-03-22T04:09:58;20.45;;;13.55;;
84392;SDS011;74592;48.846;2.358;2024-03-22T04:12:25;19.50;;;13.40;;
84392;SDS011;74592;48.846;2.358;2024-03-22T04:14:51;18.65;;;12.85;;
84392;SDS011;74592;48.846;2.358;2024-03-22T04:17:17;18.42;;;12.75;;
84392;SDS011;74592;48.846;2.358;2024-03-22T04:19:43;18.08;;;13.18;;
84392;SDS011;74592;48.846;2.358;2024-03-22T04:22:09;18.00;;;12.80;;
84392;SDS011;74592;48.846;2.358;2024-03-22T04:24:34;17.65;;;12.20;;
84392;SDS011;74592;48.846;2.358;2024-03-22T04:27:00;17.10;;;13.25;;
84392;SDS011;74592;48.846;2.358;2024-03-22T04:29:25;20.75;;;13.43;;
84392;SDS011;74592;48.846;2.358;2024-03-22T04:31:51;22.58;;;12.75;;
84392;SDS011;74592;48.846;2.358;2024-03-22T04:34:16;15.93;;;11.65;;
84392;SDS011;74592;48.846;2.358;2024-03-22T04:36:42;14.27;;;11.80;;
84392;SDS011;74592;48.846;2.358;2024-03-22T04:39:08;20.38;;;12.68;;
84392;SDS011;74592;48.846;2.358;2024-03-22T04:41:34;16.60;;;11.93;;
84392;SDS011;74592;48.846;2.358;2024-03-22T04:44:00;16.27;;;12.38;;
84392;SDS011;74592;48.846;2.358;2024-03-22T04:46:26;16.48;;;12.57;;
84392;SDS011;74592;48.846;2.358;2024-03-22T04:48:51;19.80;;;13.68;;
84392;SDS011;74592;48.846;2.358;2024-03-22T04:51:17;17.65;;;13.13;;
84392;SDS011;74592;48.846;2.358;2024-03-22T04:53:43;19.50;;;12.35;;
84392;SDS011;74592;48.846;2.358;2024-03-22T04:56:09;17.85;;;13.25;;
84392;SDS011;74592;48.846;2.358;2024-03-22T04:58:34;21.77;;;13.85;;
84392;SDS011;74592;48.846;2.358;2024-03-22T05:01:00;19.58;;;12.80;;
84392;SDS011;74592;48.846;2.358;2024-03-22T05:03:26;21.35;;;13.20;;
84392;SDS011;74592;48.846;2.358;2024-03-22T05:05:51;24.73;;;13.98;;
84392;SDS011;74592;48.846;2.358;2024-03-22T05:08:17;19.40;;;12.50;;
84392;SDS011;74592;48.846;2.358;2024-03-22T05:10:43;17.35;;;12.57;;
84392;SDS011;74592;48.846;2.358;2024-03-22T05:13:08;17.63;;;13.43;;
84392;SDS011;74592;48.846;2.358;2024-03-22T05:15:34;17.00;;;12.00;;
84392;SDS011;74592;48.846;2.358;2024-03-22T05:18:00;20.67;;;13.25;;
84392;SDS011;74592;48.846;2.358;2024-03-22T05:20:25;19.33;;;12.73;;
84392;SDS011;74592;48.846;2.358;2024-03-22T05:22:51;20.75;;;13.05;;
84392;SDS011;74592;48.846;2.358;2024-03-22T05:25:17;16.05;;;12.10;;
84392;SDS011;74592;48.846;2.358;2024-03-22T05:27:43;19.38;;;12.90;;
84392;SDS011;74592;48.846;2.358;2024-03-22T05:30:09;22.23;;;13.40;;
84392;SDS011;74592;48.846;2.358;2024-03-22T05:32:36;18.10;;;12.02;;
84392;SDS011;74592;48.846;2.358;2024-03-22T05:35:02;17.05;;;12.77;;
84392;SDS011;74592;48.846;2.358;2024-03-22T05:37:27;18.58;;;12.63;;
84392;SDS011;74592;48.846;2.358;2024-03-22T05:39:53;21.38;;;12.80;;
84392;SDS011;74592;48.846;2.358;2024-03-22T05:42:19;20.05;;;14.00;;
84392;SDS011;74592;48.846;2.358;2024-03-22T05:44:45;18.95;;;13.05;;
84392;SDS011;74592;48.846;2.358;2024-03-22T05:47:10;17.83;;;12.95;;
84392;SDS011;74592;48.846;2.358;2024-03-22T05:49:36;18.65;;;12.98;;
84392;SDS011;74592;48.846;2.358;2024-03-22T05:52:02;18.83;;;12.25;;
84392;SDS011;74592;48.846;2.358;2024-03-22T05:54:28;19.50;;;12.15;;
84392;SDS011;74592;48.846;2.358;2024-03-22T05:56:53;20.70;;;13.25;;
84392;SDS011;74592;48.846;2.358;2024-03-22T05:59:20;19.88;;;13.23;;
84392;SDS011;74592;48.846;2.358;2024-03-22T06:01:45;19.98;;;13.00;;
84392;SDS011;74592;48.846;2.358;2024-03-22T06:04:11;19.05;;;12.70;;
84392;SDS011;74592;48.846;2.358;2024-03-22T06:06:36;22.50;;;13.82;;
84392;SDS011;74592;48.846;2.358;2024-03-22T06:09:03;15.18;;;12.20;;
84392;SDS011;74592;48.846;2.358;2024-03-22T06:11:30;20.52;;;13.90;;
84392;SDS011;74592;48.846;2.358;2024-03-22T06:13:56;17.75;;;12.07;;
84392;SDS011;74592;48.846;2.358;2024-03-22T06:16:22;18.63;;;12.23;;
84392;SDS011;74592;48.846;2.358;2024-03-22T06:18:47;21.27;;;12.10;;
84392;SDS011;74592;48.846;2.358;2024-03-22T06:21:13;22.20;;;12.60;;
84392;SDS011;74592;48.846;2.358;2024-03-22T06:23:47;19.50;;;12.85;;
84392;SDS011;74592;48.846;2.358;2024-03-22T06:26:16;19.45;;;13.73;;
84392;SDS011;74592;48.846;2.358;2024-03-22T06:28:41;25.15;;;13.95;;
84392;SDS011;74592;48.846;2.358;2024-03-22T06:31:07;19.13;;;13.52;;
84392;SDS011;74592;48.846;2.358;2024-03-22T06:33:33;19.92;;;13.13;;
84392;SDS011;74592;48.846;2.358;2024-03-22T06:35:59;19.67;;;13.00;;
84392;SDS011;74592;48.846;2.358;2024-03-22T06:38:24;24.50;;;12.70;;
84392;SDS011;74592;48.846;2.358;2024-03-22T06:40:50;18.90;;;13.55;;
84392;SDS011;74592;48.846;2.358;2024-03-22T06:43:16;29.35;;;14.75;;
84392;SDS011;74592;48.846;2.358;2024-03-22T06:45:42;22.98;;;14.48;;
84392;SDS011;74592;48.846;2.358;2024-03-22T06:48:07;20.35;;;14.60;;
84392;SDS011;74592;48.846;2.358;2024-03-22T06:50:33;20.77;;;13.85;;
84392;SDS011;74592;48.846;2.358;2024-03-22T06:52:58;21.98;;;14.52;;
84392;SDS011;74592;48.846;2.358;2024-03-22T06:55:24;23.63;;;15.70;;
84392;SDS011;74592;48.846;2.358;2024-03-22T06:57:50;22.48;;;15.25;;
84392;SDS011;74592;48.846;2.358;2024-03-22T07:00:17;24.38;;;16.85;;
84392;SDS011;74592;48.846;2.358;2024-03-22T07:02:43;24.38;;;17.83;;
84392;SDS011;74592;48.846;2.358;2024-03-22T07:05:09;30.45;;;18.75;;
84392;SDS011;74592;48.846;2.358;2024-03-22T07:07:41;25.60;;;16.65;;
84392;SDS011;74592;48.846;2.358;2024-03-22T07:10:07;24.52;;;16.67;;
84392;SDS011;74592;48.846;2.358;2024-03-22T07:12:32;21.67;;;15.73;;
84392;SDS011;74592;48.846;2.358;2024-03-22T07:15:01;20.52;;;15.18;;
84392;SDS011;74592;48.846;2.358;2024-03-22T07:17:28;22.15;;;14.82;;
84392;SDS011;74592;48.846;2.358;2024-03-22T07:19:53;24.60;;;15.63;;
84392;SDS011;74592;48.846;2.358;2024-03-22T07:22:20;21.13;;;15.23;;
84392;SDS011;74592;48.846;2.358;2024-03-22T07:24:46;20.10;;;15.38;;
84392;SDS011;74592;48.846;2.358;2024-03-22T07:27:12;22.17;;;15.05;;
84392;SDS011;74592;48.846;2.358;2024-03-22T07:29:40;21.30;;;14.65;;
84392;SDS011;74592;48.846;2.358;2024-03-22T07:32:06;18.88;;;14.30;;
84392;SDS011;74592;48.846;2.358;2024-03-22T07:34:31;21.35;;;15.68;;
84392;SDS011;74592;48.846;2.358;2024-03-22T07:36:57;23.02;;;18.13;;
84392;SDS011;74592;48.846;2.358;2024-03-22T07:39:23;25.58;;;17.67;;
84392;SDS011;74592;48.846;2.358;2024-03-22T07:41:49;27.33;;;15.50;;
84392;SDS011;74592;48.846;2.358;2024-03-22T07:44:15;23.58;;;15.80;;
84392;SDS011;74592;48.846;2.358;2024-03-22T07:46:43;23.23;;;14.73;;
84392;SDS011;74592;48.846;2.358;2024-03-22T07:49:09;21.80;;;15.13;;
84392;SDS011;74592;48.846;2.358;2024-03-22T07:51:35;25.30;;;16.35;;
84392;SDS011;74592;48.846;2.358;2024-03-22T07:54:01;20.55;;;15.32;;
84392;SDS011;74592;48.846;2.358;2024-03-22T07:56:29;20.95;;;16.00;;
84392;SDS011;74592;48.846;2.358;2024-03-22T07:58:55;23.23;;;15.90;;
84392;SDS011;74592;48.846;2.358;2024-03-22T08:01:21;23.63;;;16.17;;
84392;SDS011;74592;48.846;2.358;2024-03-22T08:03:47;18.90;;;14.10;;
84392;SDS011;74592;48.846;2.358;2024-03-22T08:06:14;19.27;;;14.73;;
84392;SDS011;74592;48.846;2.358;2024-03-22T08:08:40;18.80;;;13.27;;
84392;SDS011;74592;48.846;2.358;2024-03-22T08:11:06;22.45;;;14.52;;
84392;SDS011;74592;48.846;2.358;2024-03-22T08:13:31;19.45;;;13.02;;
84392;SDS011;74592;48.846;2.358;2024-03-22T08:15:57;22.02;;;16.73;;
84392;SDS011;74592;48.846;2.358;2024-03-22T08:18:22;22.58;;;14.93;;
84392;SDS011;74592;48.846;2.358;2024-03-22T08:20:48;18.70;;;13.88;;
84392;SDS011;74592;48.846;2.358;2024-03-22T08:23:14;23.42;;;13.93;;
84392;SDS011;74592;48.846;2.358;2024-03-22T08:25:39;21.92;;;14.93;;
84392;SDS011;74592;48.846;2.358;2024-03-22T08:28:08;20.23;;;14.25;;
84392;SDS011;74592;48.846;2.358;2024-03-22T08:30:36;23.77;;;14.73;;
84392;SDS011;74592;48.846;2.358;2024-03-22T08:33:02;17.67;;;12.75;;
84392;SDS011;74592;48.846;2.358;2024-03-22T08:35:29;19.02;;;13.30;;
84392;SDS011;74592;48.846;2.358;2024-03-22T08:38:06;22.27;;;13.00;;
84392;SDS011;74592;48.846;2.358;2024-03-22T08:40:36;17.38;;;12.45;;
84392;SDS011;74592;48.846;2.358;2024-03-22T08:43:03;17.38;;;12.82;;
84392;SDS011;74592;48.846;2.358;2024-03-22T08:45:32;19.20;;;12.88;;
84392;SDS011;74592;48.846;2.358;2024-03-22T08:47:58;18.40;;;12.63;;
84392;SDS011;74592;48.846;2.358;2024-03-22T08:50:23;15.13;;;11.98;;
84392;SDS011;74592;48.846;2.358;2024-03-22T08:52:50;17.10;;;13.10;;
84392;SDS011;74592;48.846;2.358;2024-03-22T08:55:16;21.30;;;13.60;;
84392;SDS011;74592;48.846;2.358;2024-03-22T08:57:42;25.75;;;15.70;;
84392;SDS011;74592;48.846;2.358;2024-03-22T09:00:08;21.33;;;14.45;;
84392;SDS011;74592;48.846;2.358;2024-03-22T09:02:35;21.63;;;16.17;;
84392;SDS011;74592;48.846;2.358;2024-03-22T09:05:06;20.05;;;13.90;;
84392;SDS011;74592;48.846;2.358;2024-03-22T09:07:33;20.25;;;13.88;;
84392;SDS011;74592;48.846;2.358;2024-03-22T09:09:59;21.58;;;12.98;;
84392;SDS011;74592;48.846;2.358;2024-03-22T09:12:25;16.30;;;12.40;;
84392;SDS011;74592;48.846;2.358;2024-03-22T09:14:50;22.67;;;14.05;;
84392;SDS011;74592;48.846;2.358;2024-03-22T09:17:16;22.60;;;15.77;;
84392;SDS011;74592;48.846;2.358;2024-03-22T09:19:42;25.92;;;14.68;;
84392;SDS011;74592;48.846;2.358;2024-03-22T09:22:08;21.17;;;13.82;;
84392;SDS011;74592;48.846;2.358;2024-03-22T09:24:34;19.05;;;14.13;;
84392;SDS011;74592;48.846;2.358;2024-03-22T09:26:59;21.85;;;14.85;;
84392;SDS011;74592;48.846;2.358;2024-03-22T09:29:25;18.27;;;13.55;;
84392;SDS011;74592;48.846;2.358;2024-03-22T09:31:51;24.10;;;15.85;;
84392;SDS011;74592;48.846;2.358;2024-03-22T09:34:16;20.85;;;14.23;;
84392;SDS011;74592;48.846;2.358;2024-03-22T09:36:42;17.60;;;13.35;;
84392;SDS011;74592;48.846;2.358;2024-03-22T09:39:08;21.98;;;13.90;;
84392;SDS011;74592;48.846;2.358;2024-03-22T09:41:33;19.55;;;14.35;;
84392;SDS011;74592;48.846;2.358;2024-03-22T09:44:06;17.40;;;13.07;;
84392;SDS011;74592;48.846;2.358;2024-03-22T09:46:33;16.38;;;12.43;;
84392;SDS011;74592;48.846;2.358;2024-03-22T09:48:59;18.77;;;13.20;;
84392;SDS011;74592;48.846;2.358;2024-03-22T09:51:26;18.85;;;12.77;;
84392;SDS011;74592;48.846;2.358;2024-03-22T09:53:53;17.73;;;12.77;;
84392;SDS011;74592;48.846;2.358;2024-03-22T09:56:20;21.63;;;14.60;;
84392;SDS011;74592;48.846;2.358;2024-03-22T09:58:46;19.67;;;14.77;;
84392;SDS011;74592;48.846;2.358;2024-03-22T10:01:15;19.90;;;15.98;;
84392;SDS011;74592;48.846;2.358;2024-03-22T10:03:42;26.80;;;15.73;;
84392;SDS011;74592;48.846;2.358;2024-03-22T10:06:09;22.88;;;16.45;;
84392;SDS011;74592;48.846;2.358;2024-03-22T10:08:34;21.52;;;15.25;;
84392;SDS011;74592;48.846;2.358;2024-03-22T10:11:03;22.88;;;15.52;;
84392;SDS011;74592;48.846;2.358;2024-03-22T10:13:29;22.90;;;15.52;;
84392;SDS011;74592;48.846;2.358;2024-03-22T10:15:56;21.33;;;14.00;;
84392;SDS011;74592;48.846;2.358;2024-03-22T10:18:22;19.52;;;13.82;;
84392;SDS011;74592;48.846;2.358;2024-03-22T10:20:58;15.95;;;12.18;;
84392;SDS011;74592;48.846;2.358;2024-03-22T10:23:27;16.67;;;12.20;;
84392;SDS011;74592;48.846;2.358;2024-03-22T10:25:55;17.40;;;12.23;;
84392;SDS011;74592;48.846;2.358;2024-03-22T10:28:21;18.92;;;12.07;;
84392;SDS011;74592;48.846;2.358;2024-03-22T10:30:47;17.88;;;13.02;;
84392;SDS011;74592;48.846;2.358;2024-03-22T10:33:15;19.08;;;13.10;;
84392;SDS011;74592;48.846;2.358;2024-03-22T10:35:43;17.52;;;12.48;;
84392;SDS011;74592;48.846;2.358;2024-03-22T10:38:09;15.90;;;12.30;;
84392;SDS011;74592;48.846;2.358;2024-03-22T10:40:37;19.02;;;13.25;;
84392;SDS011;74592;48.846;2.358;2024-03-22T10:43:05;20.05;;;12.70;;
84392;SDS011;74592;48.846;2.358;2024-03-22T10:45:31;20.95;;;13.95;;
84392;SDS011;74592;48.846;2.358;2024-03-22T10:47:58;20.83;;;13.82;;
84392;SDS011;74592;48.846;2.358;2024-03-22T10:50:30;15.68;;;12.43;;
84392;SDS011;74592;48.846;2.358;2024-03-22T10:52:59;17.33;;;13.05;;
84392;SDS011;74592;48.846;2.358;2024-03-22T10:55:33;17.42;;;12.23;;
84392;SDS011;74592;48.846;2.358;2024-03-22T10:58:01;15.45;;;11.82;;
84392;SDS011;74592;48.846;2.358;2024-03-22T11:00:32;20.25;;;13.23;;
84392;SDS011;74592;48.846;2.358;2024-03-22T11:03:01;18.52;;;12.43;;
84392;SDS011;74592;48.846;2.358;2024-03-22T11:05:28;18.30;;;13.00;;
84392;SDS011;74592;48.846;2.358;2024-03-22T11:08:03;19.27;;;12.45;;
84392;SDS011;74592;48.846;2.358;2024-03-22T11:10:30;16.77;;;12.52;;
84392;SDS011;74592;48.846;2.358;2024-03-22T11:13:00;16.38;;;11.07;;
84392;SDS011;74592;48.846;2.358;2024-03-22T11:15:28;16.23;;;9.77;;
84392;SDS011;74592;48.846;2.358;2024-03-22T11:17:54;18.65;;;13.20;;
84392;SDS011;74592;48.846;2.358;2024-03-22T11:20:20;19.40;;;14.60;;
84392;SDS011;74592;48.846;2.358;2024-03-22T11:22:46;18.80;;;13.20;;
84392;SDS011;74592;48.846;2.358;2024-03-22T11:25:15;17.50;;;11.75;;
84392;SDS011;74592;48.846;2.358;2024-03-22T11:27:41;16.80;;;11.40;;
84392;SDS011;74592;48.846;2.358;2024-03-22T11:30:06;13.70;;;10.50;;
84392;SDS011;74592;48.846;2.358;2024-03-22T11:32:33;16.52;;;11.70;;
84392;SDS011;74592;48.846;2.358;2024-03-22T11:35:07;18.55;;;12.45;;
84392;SDS011;74592;48.846;2.358;2024-03-22T11:37:39;14.75;;;10.73;;
84392;SDS011;74592;48.846;2.358;2024-03-22T11:40:14;16.67;;;11.18;;
84392;SDS011;74592;48.846;2.358;2024-03-22T11:42:40;18.42;;;11.90;;
84392;SDS011;74592;48.846;2.358;2024-03-22T11:45:10;24.55;;;12.68;;
84392;SDS011;74592;48.846;2.358;2024-03-22T11:47:41;17.83;;;10.75;;
84392;SDS011;74592;48.846;2.358;2024-03-22T11:50:07;17.10;;;11.60;;
84392;SDS011;74592;48.846;2.358;2024-03-22T11:52:34;13.50;;;10.88;;
84392;SDS011;74592;48.846;2.358;2024-03-22T11:55:00;13.88;;;10.00;;
84392;SDS011;74592;48.846;2.358;2024-03-22T11:57:29;13.55;;;10.95;;
84392;SDS011;74592;48.846;2.358;2024-03-22T11:59:58;13.55;;;10.43;;
84392;SDS011;74592;48.846;2.358;2024-03-22T12:02:25;15.57;;;10.45;;
84392;SDS011;74592;48.846;2.358;2024-03-22T12:04:50;14.13;;;10.93;;
84392;SDS011;74592;48.846;2.358;2024-03-22T12:07:17;14.05;;;10.07;;
84392;SDS011;74592;48.846;2.358;2024-03-22T12:09:43;12.88;;;9.80;;
84392;SDS011;74592;48.846;2.358;2024-03-22T12:12:10;14.10;;;10.40;;
84392;SDS011;74592;48.846;2.358;2024-03-22T12:14:37;12.27;;;9.48;;
84392;SDS011;74592;48.846;2.358;2024-03-22T12:17:03;11.27;;;9.25;;
84392;SDS011;74592;48.846;2.358;2024-03-22T12:19:29;15.00;;;10.30;;
84392;SDS011;74592;48.846;2.358;2024-03-22T12:21:56;13.75;;;9.15;;
84392;SDS011;74592;48.846;2.358;2024-03-22T12:24:22;16.13;;;9.02;;
84392;SDS011;74592;48.846;2.358;2024-03-22T12:26:49;14.20;;;8.32;;
84392;SDS011;74592;48.846;2.358;2024-03-22T12:29:15;19.15;;;8.68;;
84392;SDS011;74592;48.846;2.358;2024-03-22T12:31:41;13.48;;;9.40;;
84392;SDS011;74592;48.846;2.358;2024-03-22T12:34:07;19.20;;;13.45;;
84392;SDS011;74592;48.846;2.358;2024-03-22T12:36:33;15.82;;;9.80;;
84392;SDS011;74592;48.846;2.358;2024-03-22T12:38:58;13.23;;;9.50;;
84392;SDS011;74592;48.846;2.358;2024-03-22T12:41:24;14.35;;;9.95;;
84392;SDS011;74592;48.846;2.358;2024-03-22T12:43:50;12.23;;;8.88;;
84392;SDS011;74592;48.846;2.358;2024-03-22T12:46:16;11.18;;;7.55;;
84392;SDS011;74592;48.846;2.358;2024-03-22T12:48:42;11.43;;;7.38;;
84392;SDS011;74592;48.846;2.358;2024-03-22T12:51:08;15.32;;;9.77;;
84392;SDS011;74592;48.846;2.358;2024-03-22T12:53:33;11.88;;;7.35;;
84392;SDS011;74592;48.846;2.358;2024-03-22T12:55:59;11.88;;;8.57;;
84392;SDS011;74592;48.846;2.358;2024-03-22T12:58:24;12.77;;;6.47;;
84392;SDS011;74592;48.846;2.358;2024-03-22T13:00:50;17.65;;;7.35;;
84392;SDS011;74592;48.846;2.358;2024-03-22T13:03:16;12.48;;;6.40;;
84392;SDS011;74592;48.846;2.358;2024-03-22T13:05:42;8.57;;;5.80;;
84392;SDS011;74592;48.846;2.358;2024-03-22T13:08:07;8.35;;;5.38;;
84392;SDS011;74592;48.846;2.358;2024-03-22T13:10:33;7.43;;;5.57;;
84392;SDS011;74592;48.846;2.358;2024-03-22T13:12:59;7.85;;;5.05;;
84392;SDS011;74592;48.846;2.358;2024-03-22T13:15:28;8.18;;;5.15;;
84392;SDS011;74592;48.846;2.358;2024-03-22T13:17:55;9.27;;;6.70;;
84392;SDS011;74592;48.846;2.358;2024-03-22T13:20:21;9.05;;;6.22;;
84392;SDS011;74592;48.846;2.358;2024-03-22T13:22:47;10.18;;;5.85;;
84392;SDS011;74592;48.846;2.358;2024-03-22T13:25:12;7.32;;;4.88;;
84392;SDS011;74592;48.846;2.358;2024-03-22T13:27:38;7.15;;;4.88;;
84392;SDS011;74592;48.846;2.358;2024-03-22T13:30:07;7.82;;;4.85;;
84392;SDS011;74592;48.846;2.358;2024-03-22T13:32:37;10.75;;;5.45;;
84392;SDS011;74592;48.846;2.358;2024-03-22T13:35:04;8.20;;;4.38;;
84392;SDS011;74592;48.846;2.358;2024-03-22T13:37:30;5.93;;;3.47;;
84392;SDS011;74592;48.846;2.358;2024-03-22T13:39:56;5.82;;;3.83;;
84392;SDS011;74592;48.846;2.358;2024-03-22T13:42:22;15.75;;;9.25;;
84392;SDS011;74592;48.846;2.358;2024-03-22T13:44:48;5.93;;;3.83;;
84392;SDS011;74592;48.846;2.358;2024-03-22T13:47:14;9.45;;;5.15;;
84392;SDS011;74592;48.846;2.358;2024-03-22T13:49:39;11.48;;;4.10;;
84392;SDS011;74592;48.846;2.358;2024-03-22T13:52:08;7.20;;;3.55;;
84392;SDS011;74592;48.846;2.358;2024-03-22T13:54:34;8.20;;;4.50;;
84392;SDS011;74592;48.846;2.358;2024-03-22T13:57:00;6.82;;;3.80;;
84392;SDS011;74592;48.846;2.358;2024-03-22T13:59:29;5.47;;;3.30;;
84392;SDS011;74592;48.846;2.358;2024-03-22T14:01:54;7.03;;;2.83;;
84392;SDS011;74592;48.846;2.358;2024-03-22T14:04:21;4.57;;;3.00;;
84392;SDS011;74592;48.846;2.358;2024-03-22T14:06:48;5.72;;;3.20;;
84392;SDS011;74592;48.846;2.358;2024-03-22T14:09:13;9.18;;;3.88;;
84392;SDS011;74592;48.846;2.358;2024-03-22T14:11:40;7.07;;;3.30;;
84392;SDS011;74592;48.846;2.358;2024-03-22T14:14:08;6.13;;;3.00;;
84392;SDS011;74592;48.846;2.358;2024-03-22T14:16:37;6.13;;;3.50;;
84392;SDS011;74592;48.846;2.358;2024-03-22T14:19:03;5.07;;;3.28;;